createdAt,value
2023-02-05T00:01:25.400Z,17.25
2023-02-05T00:03:52.184Z,14.32
2023-02-05T00:06:18.941Z,15.85
2023-02-05T00:08:45.612Z,17.98
2023-02-05T00:11:12.433Z,20.05
2023-02-05T00:13:41.026Z,19.15
2023-02-05T00:16:16.548Z,23.85
2023-02-05T00:18:43.674Z,18.25
2023-02-05T00:21:11.084Z,22.75
2023-02-05T00:23:38.510Z,17.55
2023-02-05T00:26:06.591Z,21.73
2023-02-05T00:28:34.628Z,17.08
2023-02-05T00:31:06.736Z,16.83
2023-02-05T00:33:34.065Z,12.05
2023-02-05T00:36:00.705Z,14.43
2023-02-05T00:38:27.332Z,17.42
2023-02-05T00:40:54.000Z,14.35
2023-02-05T00:43:20.609Z,16.17
2023-02-05T00:45:47.509Z,13.15
2023-02-05T00:48:14.187Z,15.90
2023-02-05T00:50:40.979Z,12.32
2023-02-05T00:53:07.749Z,12.30
2023-02-05T00:55:34.644Z,9.52
2023-02-05T00:58:01.415Z,15.63
2023-02-05T01:00:28.430Z,13.73
2023-02-05T01:02:55.496Z,17.83
2023-02-05T01:05:22.271Z,20.48
2023-02-05T01:07:48.940Z,17.05
2023-02-05T01:10:15.868Z,21.70
2023-02-05T01:12:42.557Z,20.15
2023-02-05T01:15:11.869Z,20.77
2023-02-05T01:17:38.938Z,16.98
2023-02-05T01:20:06.922Z,34.83
2023-02-05T01:22:33.636Z,18.63
2023-02-05T01:25:00.416Z,19.92
2023-02-05T01:27:27.287Z,19.00
2023-02-05T01:29:53.924Z,24.60
2023-02-05T01:32:20.681Z,17.95
2023-02-05T01:34:47.385Z,18.42
2023-02-05T01:37:14.056Z,20.35
2023-02-05T01:39:40.678Z,20.08
2023-02-05T01:42:18.741Z,19.88
2023-02-05T01:45:05.493Z,20.85
2023-02-05T01:47:32.157Z,21.30
2023-02-05T01:49:58.844Z,21.48
2023-02-05T01:52:25.783Z,25.17
2023-02-05T01:54:54.939Z,23.45
2023-02-05T01:57:25.249Z,26.63
2023-02-05T01:59:52.021Z,25.05
2023-02-05T02:02:18.865Z,21.25
2023-02-05T02:04:54.951Z,20.77
2023-02-05T02:07:24.419Z,22.45
2023-02-05T02:09:53.447Z,19.20
2023-02-05T02:12:25.212Z,21.20
2023-02-05T02:14:56.844Z,17.40
2023-02-05T02:17:25.084Z,16.85
2023-02-05T02:20:15.557Z,17.35
2023-02-05T02:23:08.189Z,13.18
2023-02-05T02:25:52.400Z,12.57
2023-02-05T02:28:35.557Z,17.33
2023-02-05T02:31:08.778Z,10.68
2023-02-05T02:34:01.949Z,18.08
2023-02-05T02:36:42.612Z,13.43
2023-02-05T02:39:47.175Z,18.75
2023-02-05T02:42:17.592Z,16.42
2023-02-05T02:44:46.892Z,14.90
2023-02-05T02:47:21.090Z,16.15
2023-02-05T02:50:01.007Z,13.63
2023-02-05T02:52:33.401Z,17.55
2023-02-05T02:55:05.530Z,17.55
2023-02-05T02:57:35.158Z,13.90
2023-02-05T03:00:02.863Z,15.43
2023-02-05T03:02:33.198Z,19.65
2023-02-05T03:05:05.975Z,17.77
2023-02-05T03:07:38.243Z,15.90
2023-02-05T03:10:23.723Z,15.20
2023-02-05T03:12:50.773Z,18.37
2023-02-05T03:15:17.581Z,18.02
2023-02-05T03:17:44.699Z,18.05
2023-02-05T03:20:19.776Z,14.00
2023-02-05T03:22:46.601Z,12.93
2023-02-05T03:25:13.744Z,14.93
2023-02-05T03:27:40.577Z,12.05
2023-02-05T03:30:08.856Z,10.68
2023-02-05T03:32:53.954Z,11.63
2023-02-05T03:35:27.226Z,14.70
2023-02-05T03:38:02.839Z,11.77
2023-02-05T03:40:43.946Z,8.48
2023-02-05T03:43:13.693Z,12.27
2023-02-05T03:45:52.816Z,10.88
2023-02-05T03:48:59.933Z,13.30
2023-02-05T03:51:50.976Z,15.40
2023-02-05T03:54:57.623Z,13.88
2023-02-05T03:57:35.338Z,14.00
2023-02-05T04:00:02.888Z,12.35
2023-02-05T04:02:29.777Z,15.15
2023-02-05T04:04:56.492Z,13.40
2023-02-05T04:07:23.215Z,16.40
2023-02-05T04:09:49.892Z,14.00
2023-02-05T04:12:16.626Z,17.38
2023-02-05T04:14:43.413Z,14.88
2023-02-05T04:17:12.322Z,14.63
2023-02-05T04:19:39.135Z,15.98
2023-02-05T04:22:05.795Z,15.55
2023-02-05T04:24:32.480Z,14.93
2023-02-05T04:26:59.210Z,16.42
2023-02-05T04:29:26.039Z,14.10
2023-02-05T04:31:52.776Z,16.30
2023-02-05T04:34:19.472Z,17.33
2023-02-05T04:36:46.194Z,17.17
2023-02-05T04:39:12.960Z,17.13
2023-02-05T04:41:39.588Z,18.33
2023-02-05T04:44:06.715Z,14.68
2023-02-05T04:46:33.414Z,16.23
2023-02-05T04:49:01.295Z,13.13
2023-02-05T04:51:27.996Z,13.00
2023-02-05T04:53:54.662Z,12.43
2023-02-05T04:56:21.326Z,14.75
2023-02-05T04:58:48.042Z,13.68
2023-02-05T05:01:17.220Z,13.63
2023-02-05T05:03:44.882Z,15.20
2023-02-05T05:06:12.017Z,13.75
2023-02-05T05:08:38.699Z,14.10
2023-02-05T05:11:13.995Z,12.75
2023-02-05T05:13:40.835Z,14.60
2023-02-05T05:16:09.329Z,11.68
2023-02-05T05:18:36.496Z,14.93
2023-02-05T05:21:04.327Z,14.80
2023-02-05T05:23:32.180Z,14.65
2023-02-05T05:25:58.961Z,13.18
2023-02-05T05:28:25.692Z,13.48
2023-02-05T05:30:52.370Z,13.27
2023-02-05T05:33:19.047Z,13.77
2023-02-05T05:35:45.933Z,15.20
2023-02-05T05:38:12.752Z,15.07
2023-02-05T05:40:58.412Z,18.27
2023-02-05T05:43:43.987Z,12.82
2023-02-05T05:46:10.765Z,16.10
2023-02-05T05:48:37.530Z,13.73
2023-02-05T05:51:04.792Z,14.48
2023-02-05T05:53:32.113Z,14.90
2023-02-05T05:55:58.825Z,12.77
2023-02-05T05:58:25.483Z,12.88
2023-02-05T06:00:52.230Z,11.90
2023-02-05T06:03:18.856Z,12.50
2023-02-05T06:05:45.559Z,17.77
2023-02-05T06:08:12.589Z,15.02
2023-02-05T06:10:39.334Z,14.70
2023-02-05T06:13:06.021Z,13.68
2023-02-05T06:15:32.833Z,14.13
2023-02-05T06:17:59.636Z,15.48
2023-02-05T06:20:26.577Z,15.23
2023-02-05T06:22:53.225Z,18.17
2023-02-05T06:25:20.122Z,17.60
2023-02-05T06:27:46.826Z,15.90
2023-02-05T06:30:14.102Z,15.27
2023-02-05T06:32:40.745Z,13.70
2023-02-05T06:35:07.714Z,15.68
2023-02-05T06:37:46.641Z,12.93
2023-02-05T06:40:15.777Z,24.77
2023-02-05T06:42:42.718Z,14.20
2023-02-05T06:45:10.268Z,17.52
2023-02-05T06:47:38.240Z,16.50
2023-02-05T06:50:06.596Z,14.90
2023-02-05T06:52:33.561Z,16.40
2023-02-05T06:55:00.223Z,13.05
2023-02-05T06:57:26.899Z,13.15
2023-02-05T06:59:53.609Z,17.05
2023-02-05T07:02:20.497Z,12.40
2023-02-05T07:04:47.182Z,15.55
2023-02-05T07:07:15.682Z,10.27
2023-02-05T07:09:42.871Z,13.05
2023-02-05T07:12:09.553Z,11.83
2023-02-05T07:14:39.834Z,11.20
2023-02-05T07:17:07.624Z,14.55
2023-02-05T07:19:35.208Z,12.93
2023-02-05T07:22:01.929Z,9.20
2023-02-05T07:24:28.609Z,12.60
2023-02-05T07:26:55.373Z,11.27
2023-02-05T07:29:22.017Z,10.57
2023-02-05T07:31:52.432Z,12.45
2023-02-05T07:34:19.547Z,12.43
2023-02-05T07:36:49.184Z,17.23
2023-02-05T07:39:15.980Z,16.23
2023-02-05T07:41:42.619Z,17.58
2023-02-05T07:44:09.280Z,11.70
2023-02-05T07:46:35.956Z,10.48
2023-02-05T07:49:02.758Z,13.52
2023-02-05T07:51:29.933Z,11.60
2023-02-05T07:53:56.697Z,13.80
2023-02-05T07:56:25.567Z,14.70
2023-02-05T07:58:52.283Z,14.95
2023-02-05T08:01:18.958Z,12.18
2023-02-05T08:03:45.627Z,12.27
2023-02-05T08:06:15.576Z,14.48
2023-02-05T08:08:42.759Z,19.58
2023-02-05T08:11:14.769Z,24.83
2023-02-05T08:13:42.285Z,43.70
2023-02-05T08:16:09.549Z,25.80
2023-02-05T08:18:36.241Z,15.85
2023-02-05T08:21:03.177Z,16.65
2023-02-05T08:23:30.759Z,13.93
2023-02-05T08:25:58.762Z,16.25
2023-02-05T08:28:27.850Z,18.55
2023-02-05T08:30:56.446Z,17.98
2023-02-05T08:33:23.340Z,20.60
2023-02-05T08:35:50.088Z,22.83
2023-02-05T08:38:16.934Z,23.38
2023-02-05T08:40:43.651Z,17.65
2023-02-05T08:43:10.326Z,18.40
2023-02-05T08:45:37.490Z,14.38
2023-02-05T08:48:04.473Z,13.38
2023-02-05T08:50:31.323Z,12.20
2023-02-05T08:52:57.973Z,15.95
2023-02-05T08:55:24.629Z,16.77
2023-02-05T08:57:51.496Z,16.40
2023-02-05T09:00:18.580Z,17.77
2023-02-05T09:02:45.359Z,17.17
2023-02-05T09:05:12.022Z,16.70
2023-02-05T09:07:39.806Z,17.50
2023-02-05T09:10:09.362Z,13.50
2023-02-05T09:12:36.429Z,12.52
2023-02-05T09:15:03.361Z,14.20
2023-02-05T09:17:30.008Z,17.92
2023-02-05T09:19:59.022Z,16.95
2023-02-05T09:22:25.664Z,15.30
2023-02-05T09:24:52.338Z,14.85
2023-02-05T09:27:19.017Z,13.18
2023-02-05T09:29:45.700Z,14.15
2023-02-05T09:32:12.370Z,18.35
2023-02-05T09:34:39.026Z,18.55
2023-02-05T09:37:05.684Z,15.25
2023-02-05T09:40:16.508Z,13.23
2023-02-05T09:42:38.097Z,15.57
2023-02-05T09:45:46.857Z,14.88
2023-02-05T09:48:52.393Z,14.50
2023-02-05T09:51:50.117Z,14.50
2023-02-05T09:54:25.733Z,12.02
2023-02-05T09:56:57.875Z,14.25
2023-02-05T09:59:27.046Z,11.00
2023-02-05T10:01:58.333Z,13.23
2023-02-05T10:04:26.158Z,12.55
2023-02-05T10:07:11.422Z,16.15
2023-02-05T10:09:57.565Z,13.07
2023-02-05T10:12:53.977Z,19.13
2023-02-05T10:15:33.295Z,12.75
2023-02-05T10:18:37.630Z,8.82
2023-02-05T10:21:22.684Z,10.32
2023-02-05T10:24:18.937Z,12.48
2023-02-05T10:26:49.962Z,9.70
2023-02-05T10:29:59.089Z,12.35
2023-02-05T10:32:43.881Z,12.25
2023-02-05T10:35:24.823Z,11.18
2023-02-05T10:37:54.001Z,13.68
2023-02-05T10:40:30.706Z,9.30
2023-02-05T10:43:24.998Z,14.27
2023-02-05T10:45:52.455Z,13.60
2023-02-05T10:48:31.762Z,14.38
2023-02-05T10:51:05.038Z,12.07
2023-02-05T10:53:32.000Z,10.57
2023-02-05T10:56:00.228Z,14.88
2023-02-05T10:58:55.449Z,11.88
2023-02-05T11:01:41.516Z,11.70
2023-02-05T11:04:13.919Z,10.30
2023-02-05T11:06:52.188Z,13.60
2023-02-05T11:09:24.804Z,11.23
2023-02-05T11:11:56.856Z,22.08
2023-02-05T11:14:32.535Z,16.58
2023-02-05T11:17:04.197Z,12.80
2023-02-05T11:19:30.908Z,10.40
2023-02-05T11:22:00.032Z,12.35
2023-02-05T11:24:31.454Z,56.20
2023-02-05T11:27:28.753Z,17.83
2023-02-05T11:29:59.842Z,13.50
2023-02-05T11:32:36.392Z,16.77
2023-02-05T11:35:16.060Z,37.72
2023-02-05T11:37:43.463Z,16.15
2023-02-05T11:40:25.871Z,11.27
2023-02-05T11:43:08.563Z,15.20
2023-02-05T11:45:39.032Z,16.55
2023-02-05T11:48:22.301Z,10.73
2023-02-05T11:50:49.095Z,10.23
2023-02-05T11:53:19.572Z,9.52
2023-02-05T11:55:52.066Z,12.52
2023-02-05T11:58:36.700Z,15.50
2023-02-05T12:01:20.038Z,13.15
2023-02-05T12:03:59.399Z,11.20
2023-02-05T12:06:56.281Z,10.65
2023-02-05T12:09:25.205Z,9.82
2023-02-05T12:12:21.400Z,15.52
2023-02-05T12:15:16.206Z,10.15
2023-02-05T12:18:06.367Z,13.77
2023-02-05T12:20:34.768Z,10.85
2023-02-05T12:23:29.348Z,7.57
2023-02-05T12:26:20.749Z,10.75
2023-02-05T12:29:20.497Z,13.75
2023-02-05T12:32:22.095Z,9.77
2023-02-05T12:35:00.542Z,14.45
2023-02-05T12:38:31.595Z,12.13
2023-02-05T12:41:10.649Z,5.82
2023-02-05T12:43:40.858Z,6.45
2023-02-05T12:46:29.144Z,9.85
2023-02-05T12:49:43.473Z,9.40
2023-02-05T12:52:49.145Z,9.15
2023-02-05T12:55:42.049Z,9.48
2023-02-05T12:58:12.835Z,6.82
2023-02-05T13:00:52.910Z,6.57
2023-02-05T13:03:29.871Z,10.77
2023-02-05T13:06:04.820Z,7.55
2023-02-05T13:08:46.465Z,8.73
2023-02-05T13:11:15.853Z,6.20
2023-02-05T13:13:51.384Z,12.40
2023-02-05T13:16:21.533Z,14.63
2023-02-05T13:18:59.540Z,8.80
2023-02-05T13:21:46.580Z,7.47
2023-02-05T13:24:49.752Z,8.20
2023-02-05T13:27:44.227Z,8.63
2023-02-05T13:30:24.911Z,7.10
2023-02-05T13:32:56.579Z,11.32
2023-02-05T13:35:24.427Z,18.30
2023-02-05T13:38:21.666Z,33.08
2023-02-05T13:41:16.697Z,15.13
2023-02-05T13:43:55.251Z,14.80
2023-02-05T13:46:40.886Z,10.55
2023-02-05T13:49:16.832Z,8.13
2023-02-05T13:54:59.220Z,22.48
2023-02-05T13:57:36.184Z,25.13
2023-02-05T14:00:05.311Z,20.90
2023-02-05T14:02:40.655Z,22.52
2023-02-05T14:05:08.302Z,21.15
2023-02-05T14:07:54.241Z,22.10
2023-02-05T14:10:28.310Z,23.77
2023-02-05T14:13:22.177Z,20.02
2023-02-05T14:15:49.687Z,18.02
2023-02-05T14:18:38.131Z,19.75
2023-02-05T14:21:30.821Z,23.55
2023-02-05T14:24:03.664Z,18.65
2023-02-05T14:26:59.623Z,16.73
2023-02-05T14:29:47.106Z,18.15
2023-02-05T14:32:26.003Z,19.10
2023-02-05T14:34:59.844Z,22.33
2023-02-05T14:37:40.935Z,39.92
2023-02-05T14:40:32.997Z,22.08
2023-02-05T14:43:21.524Z,22.88
2023-02-05T14:45:51.156Z,21.50
2023-02-05T14:48:27.376Z,19.10
2023-02-05T14:51:21.136Z,18.65
2023-02-05T14:53:57.783Z,20.77
2023-02-05T14:56:33.693Z,22.35
2023-02-05T14:59:31.726Z,19.17
2023-02-05T15:01:59.952Z,21.70
2023-02-05T15:04:52.668Z,20.67
2023-02-05T15:07:24.434Z,21.35
2023-02-05T15:10:03.877Z,20.98
2023-02-05T15:12:53.721Z,22.52
2023-02-05T15:15:35.740Z,30.60
2023-02-05T15:18:09.152Z,21.00
2023-02-05T15:20:40.024Z,21.45
2023-02-05T15:23:18.272Z,23.45
2023-02-05T15:25:54.657Z,26.00
2023-02-05T15:28:30.181Z,22.35
2023-02-05T15:31:16.962Z,25.38
2023-02-05T15:34:11.042Z,20.77
2023-02-05T15:36:48.575Z,22.55
2023-02-05T15:39:25.375Z,25.33
2023-02-05T15:41:55.622Z,23.77
2023-02-05T15:44:30.720Z,23.90
2023-02-05T15:47:10.114Z,21.53
2023-02-05T15:49:40.488Z,22.38
2023-02-05T15:52:07.386Z,23.27
2023-02-05T15:54:36.167Z,24.33
2023-02-05T15:57:05.176Z,20.35
2023-02-05T15:59:33.136Z,25.13
2023-02-05T16:02:22.277Z,21.98
2023-02-05T16:04:58.167Z,20.95
2023-02-05T16:07:30.590Z,25.45
2023-02-05T16:10:00.067Z,22.80
2023-02-05T16:12:26.917Z,22.05
2023-02-05T16:15:07.394Z,28.00
2023-02-05T16:17:44.997Z,22.77
2023-02-05T16:20:19.644Z,24.98
2023-02-05T16:22:52.647Z,25.77
2023-02-05T16:25:28.103Z,25.17
2023-02-05T16:27:56.250Z,29.60
2023-02-05T16:30:40.866Z,22.58
2023-02-05T16:33:28.691Z,26.98
2023-02-05T16:35:57.816Z,24.52
2023-02-05T16:38:24.726Z,24.00
2023-02-05T16:40:55.487Z,24.63
2023-02-05T16:43:25.178Z,22.77
2023-02-05T16:46:14.866Z,24.48
2023-02-05T16:48:47.413Z,28.38
2023-02-05T16:51:37.190Z,25.70
2023-02-05T16:54:09.906Z,26.08
2023-02-05T16:56:43.846Z,24.00
2023-02-05T16:59:19.310Z,26.77
2023-02-05T17:01:46.047Z,27.95
2023-02-05T17:04:31.203Z,27.33
2023-02-05T17:06:59.993Z,29.23
2023-02-05T17:09:36.080Z,29.63
2023-02-05T17:12:21.734Z,24.85
2023-02-05T17:14:58.944Z,33.17
2023-02-05T17:17:27.053Z,29.63
2023-02-05T17:20:17.436Z,29.40
2023-02-05T17:23:08.206Z,26.30
2023-02-05T17:25:36.265Z,23.85
2023-02-05T17:28:04.870Z,26.13
2023-02-05T17:30:31.838Z,29.45
2023-02-05T17:32:58.860Z,23.45
2023-02-05T17:35:25.814Z,23.05
2023-02-05T17:37:53.494Z,23.42
2023-02-05T17:40:21.199Z,23.00
2023-02-05T17:42:48.510Z,32.65
2023-02-05T17:45:30.964Z,22.45
2023-02-05T17:47:57.663Z,26.42
2023-02-05T17:50:24.381Z,25.02
2023-02-05T17:52:52.257Z,28.98
2023-02-05T17:55:20.502Z,24.25
2023-02-05T17:57:47.425Z,31.58
2023-02-05T18:00:15.961Z,31.13
2023-02-05T18:02:42.665Z,30.70
2023-02-05T18:05:11.796Z,30.65
2023-02-05T18:07:51.824Z,31.48
2023-02-05T18:10:23.314Z,30.67
2023-02-05T18:12:51.386Z,27.38
2023-02-05T18:15:18.567Z,25.23
2023-02-05T18:17:45.937Z,31.90
2023-02-05T18:20:13.588Z,109.43
2023-02-05T18:22:40.496Z,38.38
2023-02-05T18:25:07.672Z,27.48
2023-02-05T18:27:34.411Z,31.15
2023-02-05T18:30:01.141Z,28.60
2023-02-05T18:32:27.996Z,23.92
2023-02-05T18:34:54.739Z,25.77
2023-02-05T18:37:21.613Z,23.42
2023-02-05T18:39:48.514Z,23.42
2023-02-05T18:42:15.331Z,25.77
2023-02-05T18:44:42.003Z,25.88
2023-02-05T18:47:10.014Z,24.45
2023-02-05T18:49:36.838Z,23.17
2023-02-05T18:52:05.505Z,25.15
2023-02-05T18:54:32.166Z,25.23
2023-02-05T18:56:58.944Z,23.17
2023-02-05T18:59:25.724Z,25.80
2023-02-05T19:01:53.194Z,23.77
2023-02-05T19:04:20.750Z,22.65
2023-02-05T19:06:53.666Z,24.92
2023-02-05T19:09:24.365Z,22.23
2023-02-05T19:11:51.596Z,25.17
2023-02-05T19:14:20.698Z,24.02
2023-02-05T19:16:48.307Z,24.70
2023-02-05T19:19:21.436Z,26.77
2023-02-05T19:21:54.545Z,29.08
2023-02-05T19:24:21.925Z,26.80
2023-02-05T19:26:50.784Z,34.83
2023-02-05T19:29:19.493Z,32.95
2023-02-05T19:31:47.677Z,55.13
2023-02-05T19:34:14.921Z,84.03
2023-02-05T19:36:42.371Z,57.00
2023-02-05T19:39:12.382Z,53.58
2023-02-05T19:41:39.117Z,45.55
2023-02-05T19:44:08.290Z,37.15
2023-02-05T19:46:39.157Z,41.47
2023-02-05T19:49:11.528Z,45.95
2023-02-05T19:51:38.406Z,71.60
2023-02-05T19:54:06.651Z,66.15
2023-02-05T19:56:35.672Z,33.60
2023-02-05T19:59:02.356Z,30.55
2023-02-05T20:01:31.307Z,29.92
2023-02-05T20:04:07.608Z,50.55
2023-02-05T20:06:34.567Z,35.40
2023-02-05T20:09:02.590Z,38.17
2023-02-05T20:11:32.132Z,38.90
2023-02-05T20:14:01.981Z,36.75
2023-02-05T20:16:28.972Z,43.22
2023-02-05T20:19:00.023Z,39.70
2023-02-05T20:21:27.962Z,79.70
2023-02-05T20:23:55.704Z,38.22
2023-02-05T20:26:23.249Z,49.30
2023-02-05T20:29:11.358Z,32.10
2023-02-05T20:31:43.591Z,28.95
2023-02-05T20:34:12.885Z,26.73
2023-02-05T20:36:39.653Z,21.30
2023-02-05T20:39:07.590Z,32.13
2023-02-05T20:41:34.523Z,32.30
2023-02-05T20:44:01.627Z,30.70
2023-02-05T20:46:28.381Z,42.95
2023-02-05T20:48:55.246Z,26.20
2023-02-05T20:51:23.185Z,25.05
2023-02-05T20:53:50.488Z,28.77
2023-02-05T20:56:19.694Z,37.40
2023-02-05T20:58:46.917Z,36.67
2023-02-05T21:01:18.947Z,33.13
2023-02-05T21:03:49.551Z,26.42
2023-02-05T21:06:17.694Z,24.65
2023-02-05T21:08:46.004Z,30.38
2023-02-05T21:11:13.924Z,25.08
2023-02-05T21:13:41.590Z,26.27
2023-02-05T21:16:08.944Z,25.95
2023-02-05T21:18:35.938Z,25.83
2023-02-05T21:21:06.488Z,25.73
2023-02-05T21:23:33.262Z,28.92
2023-02-05T21:26:00.049Z,28.00
2023-02-05T21:28:26.947Z,28.88
2023-02-05T21:31:01.772Z,26.25
2023-02-05T21:33:28.497Z,30.75
2023-02-05T21:35:55.291Z,26.23
2023-02-05T21:38:22.218Z,25.35
2023-02-05T21:40:50.138Z,22.70
2023-02-05T21:43:16.855Z,23.08
2023-02-05T21:45:43.586Z,24.63
2023-02-05T21:48:13.282Z,24.15
2023-02-05T21:50:39.945Z,25.23
2023-02-05T21:53:06.641Z,27.63
2023-02-05T21:55:33.816Z,24.35
2023-02-05T21:58:00.548Z,26.35
2023-02-05T22:00:27.203Z,28.10
2023-02-05T22:02:53.924Z,24.80
2023-02-05T22:05:20.657Z,25.38
2023-02-05T22:07:47.321Z,23.67
2023-02-05T22:10:14.024Z,25.42
2023-02-05T22:12:40.734Z,22.67
2023-02-05T22:15:07.761Z,21.75
2023-02-05T22:17:34.492Z,22.77
2023-02-05T22:20:01.209Z,25.25
2023-02-05T22:22:27.916Z,24.88
2023-02-05T22:24:54.592Z,22.77
2023-02-05T22:27:21.629Z,24.48
2023-02-05T22:29:49.857Z,23.85
2023-02-05T22:32:16.568Z,23.23
2023-02-05T22:34:43.746Z,27.63
2023-02-05T22:37:10.412Z,28.35
2023-02-05T22:39:37.102Z,25.02
2023-02-05T22:42:04.784Z,25.13
2023-02-05T22:44:31.525Z,26.33
2023-02-05T22:46:58.162Z,24.65
2023-02-05T22:49:24.880Z,23.70
2023-02-05T22:51:53.004Z,25.45
2023-02-05T22:54:19.672Z,26.08
2023-02-05T22:56:46.405Z,23.50
2023-02-05T22:59:13.396Z,24.27
2023-02-05T23:01:40.186Z,26.10
2023-02-05T23:04:09.160Z,28.10
2023-02-05T23:06:41.816Z,21.05
2023-02-05T23:09:17.647Z,22.38
2023-02-05T23:11:45.223Z,23.40
2023-02-05T23:14:14.045Z,23.50
2023-02-05T23:16:43.531Z,24.02
2023-02-05T23:19:18.255Z,24.15
2023-02-05T23:21:45.186Z,24.50
2023-02-05T23:24:12.506Z,23.20
2023-02-05T23:26:42.585Z,25.52
2023-02-05T23:29:11.350Z,24.75
2023-02-05T23:31:38.617Z,24.98
2023-02-05T23:34:06.187Z,27.75
2023-02-05T23:36:33.298Z,24.92
2023-02-05T23:39:00.238Z,22.02
2023-02-05T23:41:36.665Z,24.13
2023-02-05T23:44:03.541Z,25.95
2023-02-05T23:46:30.292Z,25.08
2023-02-05T23:48:57.355Z,26.52
2023-02-05T23:51:24.166Z,25.33
2023-02-05T23:53:50.897Z,28.95
2023-02-05T23:56:17.602Z,28.85
2023-02-05T23:58:44.251Z,26.55
